sensor_id;sensor_type;location;lat;lon;timestamp;P1;durP1;ratioP1;P2;durP2;ratioP2
46463;SDS011;32161;48.148;-1.554;2023-06-14T00:01:51;17.02;;;14.40;;
46463;SDS011;32161;48.148;-1.554;2023-06-14T00:04:20;21.25;;;15.88;;
46463;SDS011;32161;48.148;-1.554;2023-06-14T00:06:50;21.83;;;15.52;;
46463;SDS011;32161;48.148;-1.554;2023-06-14T00:09:18;19.35;;;14.45;;
46463;SDS011;32161;48.148;-1.554;2023-06-14T00:11:45;16.70;;;14.63;;
46463;SDS011;32161;48.148;-1.554;2023-06-14T00:14:13;19.83;;;15.07;;
46463;SDS011;32161;48.148;-1.554;2023-06-14T00:16:42;19.70;;;14.95;;
46463;SDS011;32161;48.148;-1.554;2023-06-14T00:19:10;17.83;;;15.00;;
46463;SDS011;32161;48.148;-1.554;2023-06-14T00:21:37;18.83;;;15.40;;
46463;SDS011;32161;48.148;-1.554;2023-06-14T00:24:05;19.30;;;15.00;;
46463;SDS011;32161;48.148;-1.554;2023-06-14T00:26:34;20.70;;;16.17;;
46463;SDS011;32161;48.148;-1.554;2023-06-14T00:29:01;18.35;;;16.42;;
46463;SDS011;32161;48.148;-1.554;2023-06-14T00:31:29;22.95;;;15.98;;
46463;SDS011;32161;48.148;-1.554;2023-06-14T00:33:58;20.45;;;14.88;;
46463;SDS011;32161;48.148;-1.554;2023-06-14T00:36:26;20.88;;;16.30;;
46463;SDS011;32161;48.148;-1.554;2023-06-14T00:38:53;21.10;;;16.45;;
46463;SDS011;32161;48.148;-1.554;2023-06-14T00:41:21;21.45;;;16.48;;
46463;SDS011;32161;48.148;-1.554;2023-06-14T00:43:49;23.40;;;16.08;;
46463;SDS011;32161;48.148;-1.554;2023-06-14T00:46:17;22.00;;;17.80;;
46463;SDS011;32161;48.148;-1.554;2023-06-14T00:48:45;22.67;;;17.95;;
46463;SDS011;32161;48.148;-1.554;2023-06-14T00:51:15;22.95;;;17.90;;
46463;SDS011;32161;48.148;-1.554;2023-06-14T00:53:42;25.08;;;17.70;;
46463;SDS011;32161;48.148;-1.554;2023-06-14T00:56:12;26.15;;;18.42;;
46463;SDS011;32161;48.148;-1.554;2023-06-14T00:58:40;26.48;;;18.67;;
46463;SDS011;32161;48.148;-1.554;2023-06-14T01:01:08;21.85;;;17.33;;
46463;SDS011;32161;48.148;-1.554;2023-06-14T01:03:36;27.17;;;19.92;;
46463;SDS011;32161;48.148;-1.554;2023-06-14T01:06:05;27.45;;;19.77;;
46463;SDS011;32161;48.148;-1.554;2023-06-14T01:08:55;31.38;;;21.50;;
46463;SDS011;32161;48.148;-1.554;2023-06-14T01:11:37;27.75;;;20.80;;
46463;SDS011;32161;48.148;-1.554;2023-06-14T01:14:14;30.58;;;21.40;;
46463;SDS011;32161;48.148;-1.554;2023-06-14T01:16:44;30.25;;;23.20;;
46463;SDS011;32161;48.148;-1.554;2023-06-14T01:19:12;29.30;;;21.88;;
46463;SDS011;32161;48.148;-1.554;2023-06-14T01:21:42;32.63;;;23.88;;
46463;SDS011;32161;48.148;-1.554;2023-06-14T01:24:11;32.30;;;21.73;;
46463;SDS011;32161;48.148;-1.554;2023-06-14T01:26:38;33.42;;;23.45;;
46463;SDS011;32161;48.148;-1.554;2023-06-14T01:29:10;37.97;;;23.08;;
46463;SDS011;32161;48.148;-1.554;2023-06-14T01:31:41;33.05;;;23.80;;
46463;SDS011;32161;48.148;-1.554;2023-06-14T01:34:10;32.05;;;23.73;;
46463;SDS011;32161;48.148;-1.554;2023-06-14T01:36:38;32.83;;;23.33;;
46463;SDS011;32161;48.148;-1.554;2023-06-14T01:39:11;31.48;;;22.48;;
46463;SDS011;32161;48.148;-1.554;2023-06-14T01:41:41;32.40;;;22.27;;
46463;SDS011;32161;48.148;-1.554;2023-06-14T01:44:10;30.85;;;23.50;;
46463;SDS011;32161;48.148;-1.554;2023-06-14T01:46:40;32.72;;;23.75;;
46463;SDS011;32161;48.148;-1.554;2023-06-14T01:49:10;34.85;;;24.60;;
46463;SDS011;32161;48.148;-1.554;2023-06-14T01:51:38;32.22;;;24.45;;
46463;SDS011;32161;48.148;-1.554;2023-06-14T01:54:05;34.15;;;24.80;;
46463;SDS011;32161;48.148;-1.554;2023-06-14T01:56:34;34.40;;;25.52;;
46463;SDS011;32161;48.148;-1.554;2023-06-14T01:59:02;35.72;;;26.52;;
46463;SDS011;32161;48.148;-1.554;2023-06-14T02:01:29;43.83;;;29.45;;
46463;SDS011;32161;48.148;-1.554;2023-06-14T02:03:59;39.80;;;27.90;;
46463;SDS011;32161;48.148;-1.554;2023-06-14T02:06:27;38.72;;;26.85;;
46463;SDS011;32161;48.148;-1.554;2023-06-14T02:08:54;41.92;;;27.27;;
46463;SDS011;32161;48.148;-1.554;2023-06-14T02:11:22;36.08;;;25.73;;
46463;SDS011;32161;48.148;-1.554;2023-06-14T02:13:51;37.60;;;27.38;;
46463;SDS011;32161;48.148;-1.554;2023-06-14T02:16:20;36.70;;;26.17;;
46463;SDS011;32161;48.148;-1.554;2023-06-14T02:18:48;38.45;;;27.23;;
46463;SDS011;32161;48.148;-1.554;2023-06-14T02:21:16;36.90;;;26.02;;
46463;SDS011;32161;48.148;-1.554;2023-06-14T02:23:44;35.33;;;26.08;;
46463;SDS011;32161;48.148;-1.554;2023-06-14T02:26:11;35.03;;;25.75;;
46463;SDS011;32161;48.148;-1.554;2023-06-14T02:28:39;41.15;;;28.40;;
46463;SDS011;32161;48.148;-1.554;2023-06-14T02:31:08;39.63;;;26.77;;
46463;SDS011;32161;48.148;-1.554;2023-06-14T02:33:35;37.03;;;27.38;;
46463;SDS011;32161;48.148;-1.554;2023-06-14T02:36:03;37.10;;;27.17;;
46463;SDS011;32161;48.148;-1.554;2023-06-14T02:38:31;37.45;;;27.48;;
46463;SDS011;32161;48.148;-1.554;2023-06-14T02:40:58;36.53;;;27.80;;
46463;SDS011;32161;48.148;-1.554;2023-06-14T02:43:28;42.40;;;28.05;;
46463;SDS011;32161;48.148;-1.554;2023-06-14T02:45:56;40.33;;;28.05;;
46463;SDS011;32161;48.148;-1.554;2023-06-14T02:48:25;41.20;;;29.20;;
46463;SDS011;32161;48.148;-1.554;2023-06-14T02:50:52;42.22;;;29.30;;
46463;SDS011;32161;48.148;-1.554;2023-06-14T02:53:21;45.75;;;31.02;;
46463;SDS011;32161;48.148;-1.554;2023-06-14T02:55:49;41.67;;;30.92;;
46463;SDS011;32161;48.148;-1.554;2023-06-14T02:58:17;43.80;;;30.08;;
46463;SDS011;32161;48.148;-1.554;2023-06-14T03:00:44;42.88;;;31.48;;
46463;SDS011;32161;48.148;-1.554;2023-06-14T03:03:12;41.03;;;30.48;;
46463;SDS011;32161;48.148;-1.554;2023-06-14T03:05:43;43.70;;;29.70;;
46463;SDS011;32161;48.148;-1.554;2023-06-14T03:08:15;46.75;;;31.35;;
46463;SDS011;32161;48.148;-1.554;2023-06-14T03:10:45;46.35;;;30.60;;
46463;SDS011;32161;48.148;-1.554;2023-06-14T03:13:13;47.28;;;32.42;;
46463;SDS011;32161;48.148;-1.554;2023-06-14T03:15:42;47.25;;;32.97;;
46463;SDS011;32161;48.148;-1.554;2023-06-14T03:18:10;45.47;;;32.10;;
46463;SDS011;32161;48.148;-1.554;2023-06-14T03:20:38;47.92;;;33.83;;
46463;SDS011;32161;48.148;-1.554;2023-06-14T03:23:07;43.83;;;31.35;;
46463;SDS011;32161;48.148;-1.554;2023-06-14T03:25:35;46.20;;;31.85;;
46463;SDS011;32161;48.148;-1.554;2023-06-14T03:28:03;45.13;;;32.67;;
46463;SDS011;32161;48.148;-1.554;2023-06-14T03:30:31;53.67;;;32.78;;
46463;SDS011;32161;48.148;-1.554;2023-06-14T03:32:59;44.95;;;31.13;;
46463;SDS011;32161;48.148;-1.554;2023-06-14T03:35:27;48.13;;;33.38;;
46463;SDS011;32161;48.148;-1.554;2023-06-14T03:37:55;43.72;;;31.70;;
46463;SDS011;32161;48.148;-1.554;2023-06-14T03:40:24;45.60;;;33.00;;
46463;SDS011;32161;48.148;-1.554;2023-06-14T03:42:52;48.22;;;34.17;;
46463;SDS011;32161;48.148;-1.554;2023-06-14T03:45:20;48.22;;;33.05;;
46463;SDS011;32161;48.148;-1.554;2023-06-14T03:47:48;46.17;;;31.52;;
46463;SDS011;32161;48.148;-1.554;2023-06-14T03:50:17;48.10;;;32.10;;
46463;SDS011;32161;48.148;-1.554;2023-06-14T03:52:44;46.10;;;33.10;;
46463;SDS011;32161;48.148;-1.554;2023-06-14T03:55:15;48.13;;;32.95;;
46463;SDS011;32161;48.148;-1.554;2023-06-14T03:57:44;48.08;;;33.03;;
46463;SDS011;32161;48.148;-1.554;2023-06-14T04:00:12;52.63;;;36.17;;
46463;SDS011;32161;48.148;-1.554;2023-06-14T04:02:40;52.63;;;35.17;;
46463;SDS011;32161;48.148;-1.554;2023-06-14T04:05:09;47.88;;;34.85;;
46463;SDS011;32161;48.148;-1.554;2023-06-14T04:07:37;54.25;;;35.88;;
46463;SDS011;32161;48.148;-1.554;2023-06-14T04:10:06;51.22;;;35.75;;
46463;SDS011;32161;48.148;-1.554;2023-06-14T04:12:34;55.55;;;35.88;;
46463;SDS011;32161;48.148;-1.554;2023-06-14T04:15:03;50.45;;;34.40;;
46463;SDS011;32161;48.148;-1.554;2023-06-14T04:20:00;51.58;;;34.10;;
46463;SDS011;32161;48.148;-1.554;2023-06-14T04:22:30;54.22;;;35.75;;
46463;SDS011;32161;48.148;-1.554;2023-06-14T04:24:58;53.47;;;35.55;;
46463;SDS011;32161;48.148;-1.554;2023-06-14T04:27:26;54.25;;;36.28;;
46463;SDS011;32161;48.148;-1.554;2023-06-14T04:29:56;51.53;;;36.70;;
46463;SDS011;32161;48.148;-1.554;2023-06-14T04:32:26;52.00;;;35.47;;
46463;SDS011;32161;48.148;-1.554;2023-06-14T04:34:54;51.47;;;35.60;;
46463;SDS011;32161;48.148;-1.554;2023-06-14T04:37:22;51.33;;;33.95;;
46463;SDS011;32161;48.148;-1.554;2023-06-14T04:39:52;47.30;;;33.88;;
46463;SDS011;32161;48.148;-1.554;2023-06-14T04:42:21;53.90;;;34.17;;
46463;SDS011;32161;48.148;-1.554;2023-06-14T04:44:50;56.15;;;36.72;;
46463;SDS011;32161;48.148;-1.554;2023-06-14T04:47:21;59.88;;;35.72;;
46463;SDS011;32161;48.148;-1.554;2023-06-14T04:49:51;50.13;;;33.10;;
46463;SDS011;32161;48.148;-1.554;2023-06-14T04:52:19;48.05;;;34.50;;
46463;SDS011;32161;48.148;-1.554;2023-06-14T04:54:48;51.83;;;33.53;;
46463;SDS011;32161;48.148;-1.554;2023-06-14T04:57:16;49.22;;;33.13;;
46463;SDS011;32161;48.148;-1.554;2023-06-14T04:59:47;46.78;;;32.85;;
46463;SDS011;32161;48.148;-1.554;2023-06-14T05:02:20;43.83;;;31.75;;
46463;SDS011;32161;48.148;-1.554;2023-06-14T05:04:50;49.17;;;31.40;;
46463;SDS011;32161;48.148;-1.554;2023-06-14T05:07:18;46.08;;;32.22;;
46463;SDS011;32161;48.148;-1.554;2023-06-14T05:09:49;53.08;;;33.08;;
46463;SDS011;32161;48.148;-1.554;2023-06-14T05:12:16;47.47;;;32.47;;
46463;SDS011;32161;48.148;-1.554;2023-06-14T05:14:44;47.17;;;32.13;;
46463;SDS011;32161;48.148;-1.554;2023-06-14T05:17:12;43.53;;;31.67;;
46463;SDS011;32161;48.148;-1.554;2023-06-14T05:19:39;43.90;;;32.58;;
46463;SDS011;32161;48.148;-1.554;2023-06-14T05:22:08;47.63;;;31.35;;
46463;SDS011;32161;48.148;-1.554;2023-06-14T05:24:36;44.17;;;30.55;;
46463;SDS011;32161;48.148;-1.554;2023-06-14T05:27:03;41.25;;;29.88;;
46463;SDS011;32161;48.148;-1.554;2023-06-14T05:29:32;43.97;;;29.73;;
46463;SDS011;32161;48.148;-1.554;2023-06-14T05:31:59;40.35;;;28.83;;
46463;SDS011;32161;48.148;-1.554;2023-06-14T05:34:27;43.20;;;29.92;;
46463;SDS011;32161;48.148;-1.554;2023-06-14T05:36:54;41.53;;;28.23;;
46463;SDS011;32161;48.148;-1.554;2023-06-14T05:39:23;44.40;;;29.23;;
46463;SDS011;32161;48.148;-1.554;2023-06-14T05:41:51;36.20;;;27.60;;
46463;SDS011;32161;48.148;-1.554;2023-06-14T05:44:18;40.92;;;29.30;;
46463;SDS011;32161;48.148;-1.554;2023-06-14T05:46:46;41.15;;;29.40;;
46463;SDS011;32161;48.148;-1.554;2023-06-14T05:49:14;40.42;;;27.27;;
46463;SDS011;32161;48.148;-1.554;2023-06-14T05:51:41;42.63;;;27.40;;
46463;SDS011;32161;48.148;-1.554;2023-06-14T05:54:09;36.33;;;26.65;;
46463;SDS011;32161;48.148;-1.554;2023-06-14T05:56:37;36.17;;;25.98;;
46463;SDS011;32161;48.148;-1.554;2023-06-14T05:59:05;36.05;;;24.33;;
46463;SDS011;32161;48.148;-1.554;2023-06-14T06:01:33;34.20;;;24.20;;
46463;SDS011;32161;48.148;-1.554;2023-06-14T06:04:01;42.15;;;25.27;;
46463;SDS011;32161;48.148;-1.554;2023-06-14T06:06:29;35.92;;;24.17;;
46463;SDS011;32161;48.148;-1.554;2023-06-14T06:08:57;37.17;;;25.40;;
46463;SDS011;32161;48.148;-1.554;2023-06-14T06:11:25;36.53;;;25.10;;
46463;SDS011;32161;48.148;-1.554;2023-06-14T06:13:54;36.22;;;24.98;;
46463;SDS011;32161;48.148;-1.554;2023-06-14T06:16:22;38.10;;;24.85;;
46463;SDS011;32161;48.148;-1.554;2023-06-14T06:18:49;33.20;;;23.38;;
46463;SDS011;32161;48.148;-1.554;2023-06-14T06:21:17;28.63;;;21.70;;
46463;SDS011;32161;48.148;-1.554;2023-06-14T06:23:45;36.47;;;23.60;;
46463;SDS011;32161;48.148;-1.554;2023-06-14T06:26:12;29.88;;;22.30;;
46463;SDS011;32161;48.148;-1.554;2023-06-14T06:28:40;34.53;;;21.85;;
46463;SDS011;32161;48.148;-1.554;2023-06-14T06:31:09;31.17;;;22.02;;
46463;SDS011;32161;48.148;-1.554;2023-06-14T06:33:37;33.08;;;22.08;;
46463;SDS011;32161;48.148;-1.554;2023-06-14T06:36:06;27.92;;;21.05;;
46463;SDS011;32161;48.148;-1.554;2023-06-14T06:38:33;27.63;;;19.52;;
46463;SDS011;32161;48.148;-1.554;2023-06-14T06:41:01;32.15;;;21.42;;
46463;SDS011;32161;48.148;-1.554;2023-06-14T06:43:29;26.60;;;20.27;;
46463;SDS011;32161;48.148;-1.554;2023-06-14T06:45:56;28.50;;;19.40;;
46463;SDS011;32161;48.148;-1.554;2023-06-14T06:48:25;28.25;;;20.38;;
46463;SDS011;32161;48.148;-1.554;2023-06-14T06:50:53;28.15;;;18.67;;
46463;SDS011;32161;48.148;-1.554;2023-06-14T06:53:21;26.23;;;18.67;;
46463;SDS011;32161;48.148;-1.554;2023-06-14T06:55:49;25.95;;;19.05;;
46463;SDS011;32161;48.148;-1.554;2023-06-14T06:58:17;24.52;;;18.45;;
46463;SDS011;32161;48.148;-1.554;2023-06-14T07:00:47;25.13;;;17.63;;
46463;SDS011;32161;48.148;-1.554;2023-06-14T07:03:14;26.30;;;17.55;;
46463;SDS011;32161;48.148;-1.554;2023-06-14T07:05:44;23.45;;;15.70;;
46463;SDS011;32161;48.148;-1.554;2023-06-14T07:08:12;22.38;;;15.10;;
46463;SDS011;32161;48.148;-1.554;2023-06-14T07:10:40;21.25;;;15.05;;
46463;SDS011;32161;48.148;-1.554;2023-06-14T07:13:07;20.50;;;14.60;;
46463;SDS011;32161;48.148;-1.554;2023-06-14T07:15:35;22.50;;;15.48;;
46463;SDS011;32161;48.148;-1.554;2023-06-14T07:18:02;20.13;;;13.93;;
46463;SDS011;32161;48.148;-1.554;2023-06-14T07:20:32;19.90;;;13.32;;
46463;SDS011;32161;48.148;-1.554;2023-06-14T07:23:00;16.80;;;13.30;;
46463;SDS011;32161;48.148;-1.554;2023-06-14T07:25:28;21.88;;;12.80;;
46463;SDS011;32161;48.148;-1.554;2023-06-14T07:27:56;20.83;;;12.98;;
46463;SDS011;32161;48.148;-1.554;2023-06-14T07:30:23;20.13;;;12.98;;
46463;SDS011;32161;48.148;-1.554;2023-06-14T07:32:52;18.92;;;13.05;;
46463;SDS011;32161;48.148;-1.554;2023-06-14T07:35:19;22.00;;;12.63;;
46463;SDS011;32161;48.148;-1.554;2023-06-14T07:37:48;18.80;;;12.38;;
46463;SDS011;32161;48.148;-1.554;2023-06-14T07:40:16;16.55;;;11.75;;
46463;SDS011;32161;48.148;-1.554;2023-06-14T07:42:44;15.63;;;11.70;;
46463;SDS011;32161;48.148;-1.554;2023-06-14T07:45:12;14.98;;;12.05;;
46463;SDS011;32161;48.148;-1.554;2023-06-14T07:47:40;12.82;;;10.52;;
46463;SDS011;32161;48.148;-1.554;2023-06-14T07:50:08;16.40;;;11.23;;
46463;SDS011;32161;48.148;-1.554;2023-06-14T07:52:36;13.45;;;10.38;;
46463;SDS011;32161;48.148;-1.554;2023-06-14T07:55:04;17.15;;;11.27;;
46463;SDS011;32161;48.148;-1.554;2023-06-14T07:57:34;15.60;;;11.05;;
46463;SDS011;32161;48.148;-1.554;2023-06-14T08:00:02;19.02;;;11.00;;
46463;SDS011;32161;48.148;-1.554;2023-06-14T08:02:32;18.47;;;10.07;;
46463;SDS011;32161;48.148;-1.554;2023-06-14T08:05:00;19.20;;;11.07;;
46463;SDS011;32161;48.148;-1.554;2023-06-14T08:07:27;11.23;;;9.10;;
46463;SDS011;32161;48.148;-1.554;2023-06-14T08:09:55;14.05;;;8.88;;
46463;SDS011;32161;48.148;-1.554;2023-06-14T08:12:22;17.05;;;10.25;;
46463;SDS011;32161;48.148;-1.554;2023-06-14T08:14:51;10.70;;;8.75;;
46463;SDS011;32161;48.148;-1.554;2023-06-14T08:17:19;12.88;;;8.73;;
46463;SDS011;32161;48.148;-1.554;2023-06-14T08:19:46;14.00;;;8.85;;
46463;SDS011;32161;48.148;-1.554;2023-06-14T08:22:14;11.02;;;8.40;;
46463;SDS011;32161;48.148;-1.554;2023-06-14T08:24:43;13.00;;;8.48;;
46463;SDS011;32161;48.148;-1.554;2023-06-14T08:27:10;13.30;;;7.35;;
46463;SDS011;32161;48.148;-1.554;2023-06-14T08:29:38;14.55;;;8.73;;
46463;SDS011;32161;48.148;-1.554;2023-06-14T08:32:08;12.20;;;7.18;;
46463;SDS011;32161;48.148;-1.554;2023-06-14T08:34:35;12.73;;;8.25;;
46463;SDS011;32161;48.148;-1.554;2023-06-14T08:37:03;11.00;;;8.00;;
46463;SDS011;32161;48.148;-1.554;2023-06-14T08:39:31;11.05;;;6.43;;
46463;SDS011;32161;48.148;-1.554;2023-06-14T08:41:59;15.98;;;7.05;;
46463;SDS011;32161;48.148;-1.554;2023-06-14T08:44:29;12.00;;;8.30;;
46463;SDS011;32161;48.148;-1.554;2023-06-14T08:46:57;16.67;;;8.48;;
46463;SDS011;32161;48.148;-1.554;2023-06-14T08:49:27;20.77;;;7.20;;
46463;SDS011;32161;48.148;-1.554;2023-06-14T08:51:56;14.00;;;7.68;;
46463;SDS011;32161;48.148;-1.554;2023-06-14T08:54:26;10.50;;;6.40;;
46463;SDS011;32161;48.148;-1.554;2023-06-14T08:56:56;11.82;;;7.80;;
46463;SDS011;32161;48.148;-1.554;2023-06-14T08:59:24;16.58;;;8.35;;
46463;SDS011;32161;48.148;-1.554;2023-06-14T09:01:53;13.85;;;7.70;;
46463;SDS011;32161;48.148;-1.554;2023-06-14T09:04:22;8.73;;;6.35;;
46463;SDS011;32161;48.148;-1.554;2023-06-14T09:06:56;12.10;;;6.95;;
46463;SDS011;32161;48.148;-1.554;2023-06-14T09:09:23;11.52;;;8.25;;
46463;SDS011;32161;48.148;-1.554;2023-06-14T09:11:51;8.88;;;6.78;;
46463;SDS011;32161;48.148;-1.554;2023-06-14T09:14:19;14.80;;;8.57;;
46463;SDS011;32161;48.148;-1.554;2023-06-14T09:16:46;14.07;;;7.15;;
46463;SDS011;32161;48.148;-1.554;2023-06-14T09:19:14;12.90;;;6.75;;
46463;SDS011;32161;48.148;-1.554;2023-06-14T09:21:49;9.93;;;6.88;;
46463;SDS011;32161;48.148;-1.554;2023-06-14T09:24:19;15.80;;;7.03;;
46463;SDS011;32161;48.148;-1.554;2023-06-14T09:26:47;8.68;;;6.45;;
46463;SDS011;32161;48.148;-1.554;2023-06-14T09:29:16;10.95;;;6.32;;
46463;SDS011;32161;48.148;-1.554;2023-06-14T09:31:45;8.82;;;6.40;;
46463;SDS011;32161;48.148;-1.554;2023-06-14T09:34:13;11.68;;;6.88;;
46463;SDS011;32161;48.148;-1.554;2023-06-14T09:36:44;12.73;;;6.90;;
46463;SDS011;32161;48.148;-1.554;2023-06-14T09:39:16;12.68;;;6.88;;
46463;SDS011;32161;48.148;-1.554;2023-06-14T09:41:45;10.30;;;6.47;;
46463;SDS011;32161;48.148;-1.554;2023-06-14T09:44:13;11.05;;;6.60;;
46463;SDS011;32161;48.148;-1.554;2023-06-14T09:46:42;13.57;;;6.80;;
46463;SDS011;32161;48.148;-1.554;2023-06-14T09:49:10;10.10;;;6.35;;
46463;SDS011;32161;48.148;-1.554;2023-06-14T09:51:42;8.73;;;6.30;;
46463;SDS011;32161;48.148;-1.554;2023-06-14T09:54:12;11.40;;;6.68;;
46463;SDS011;32161;48.148;-1.554;2023-06-14T09:56:48;5.97;;;5.25;;
46463;SDS011;32161;48.148;-1.554;2023-06-14T09:59:19;10.68;;;6.32;;
46463;SDS011;32161;48.148;-1.554;2023-06-14T10:01:55;13.35;;;5.95;;
46463;SDS011;32161;48.148;-1.554;2023-06-14T10:04:28;12.48;;;6.20;;
46463;SDS011;32161;48.148;-1.554;2023-06-14T10:06:58;8.65;;;5.72;;
46463;SDS011;32161;48.148;-1.554;2023-06-14T10:09:27;13.43;;;6.75;;
46463;SDS011;32161;48.148;-1.554;2023-06-14T10:11:57;12.85;;;6.78;;
46463;SDS011;32161;48.148;-1.554;2023-06-14T10:14:26;10.35;;;5.63;;
46463;SDS011;32161;48.148;-1.554;2023-06-14T10:16:56;11.07;;;5.80;;
46463;SDS011;32161;48.148;-1.554;2023-06-14T10:19:34;10.73;;;5.78;;
46463;SDS011;32161;48.148;-1.554;2023-06-14T10:22:22;8.73;;;5.70;;
46463;SDS011;32161;48.148;-1.554;2023-06-14T10:24:59;10.23;;;6.30;;
46463;SDS011;32161;48.148;-1.554;2023-06-14T10:27:28;10.10;;;6.53;;
46463;SDS011;32161;48.148;-1.554;2023-06-14T10:30:02;8.88;;;5.75;;
46463;SDS011;32161;48.148;-1.554;2023-06-14T10:32:33;7.68;;;5.75;;
46463;SDS011;32161;48.148;-1.554;2023-06-14T10:35:02;9.65;;;5.38;;
46463;SDS011;32161;48.148;-1.554;2023-06-14T10:37:32;10.68;;;5.93;;
46463;SDS011;32161;48.148;-1.554;2023-06-14T10:40:00;9.80;;;6.35;;
46463;SDS011;32161;48.148;-1.554;2023-06-14T10:42:32;10.73;;;5.85;;
46463;SDS011;32161;48.148;-1.554;2023-06-14T10:45:00;9.55;;;5.85;;
46463;SDS011;32161;48.148;-1.554;2023-06-14T10:47:28;11.15;;;5.93;;
46463;SDS011;32161;48.148;-1.554;2023-06-14T10:50:03;8.32;;;5.07;;
46463;SDS011;32161;48.148;-1.554;2023-06-14T10:52:34;11.18;;;5.25;;
46463;SDS011;32161;48.148;-1.554;2023-06-14T10:55:07;12.70;;;5.63;;
46463;SDS011;32161;48.148;-1.554;2023-06-14T10:57:40;7.47;;;6.10;;
46463;SDS011;32161;48.148;-1.554;2023-06-14T11:00:11;8.00;;;5.28;;
46463;SDS011;32161;48.148;-1.554;2023-06-14T11:06:16;8.88;;;6.03;;
46463;SDS011;32161;48.148;-1.554;2023-06-14T11:09:10;5.35;;;4.85;;
46463;SDS011;32161;48.148;-1.554;2023-06-14T11:12:11;9.50;;;5.85;;
46463;SDS011;32161;48.148;-1.554;2023-06-14T11:14:42;11.50;;;6.03;;
46463;SDS011;32161;48.148;-1.554;2023-06-14T11:17:13;11.30;;;5.65;;
46463;SDS011;32161;48.148;-1.554;2023-06-14T11:19:40;8.27;;;5.75;;
46463;SDS011;32161;48.148;-1.554;2023-06-14T11:22:08;9.50;;;5.72;;
46463;SDS011;32161;48.148;-1.554;2023-06-14T11:24:36;8.23;;;5.60;;
46463;SDS011;32161;48.148;-1.554;2023-06-14T11:27:03;7.00;;;4.53;;
46463;SDS011;32161;48.148;-1.554;2023-06-14T11:29:33;7.18;;;5.40;;
46463;SDS011;32161;48.148;-1.554;2023-06-14T11:32:03;12.25;;;5.38;;
46463;SDS011;32161;48.148;-1.554;2023-06-14T11:34:37;8.50;;;5.45;;
46463;SDS011;32161;48.148;-1.554;2023-06-14T11:37:05;7.00;;;5.53;;
46463;SDS011;32161;48.148;-1.554;2023-06-14T11:39:33;7.05;;;5.25;;
46463;SDS011;32161;48.148;-1.554;2023-06-14T11:42:00;9.13;;;5.28;;
46463;SDS011;32161;48.148;-1.554;2023-06-14T11:44:28;7.57;;;5.15;;
46463;SDS011;32161;48.148;-1.554;2023-06-14T11:46:58;8.07;;;5.25;;
46463;SDS011;32161;48.148;-1.554;2023-06-14T11:49:27;9.82;;;6.18;;
46463;SDS011;32161;48.148;-1.554;2023-06-14T11:51:57;10.55;;;5.68;;
46463;SDS011;32161;48.148;-1.554;2023-06-14T11:54:25;9.80;;;6.28;;
46463;SDS011;32161;48.148;-1.554;2023-06-14T11:56:53;6.82;;;5.05;;
46463;SDS011;32161;48.148;-1.554;2023-06-14T11:59:21;9.10;;;5.03;;
46463;SDS011;32161;48.148;-1.554;2023-06-14T12:01:50;9.45;;;5.63;;
46463;SDS011;32161;48.148;-1.554;2023-06-14T12:04:23;6.47;;;4.75;;
46463;SDS011;32161;48.148;-1.554;2023-06-14T12:06:54;8.15;;;5.18;;
46463;SDS011;32161;48.148;-1.554;2023-06-14T12:09:22;9.48;;;6.13;;
46463;SDS011;32161;48.148;-1.554;2023-06-14T12:11:59;9.35;;;5.30;;
46463;SDS011;32161;48.148;-1.554;2023-06-14T12:14:28;8.13;;;4.93;;
46463;SDS011;32161;48.148;-1.554;2023-06-14T12:17:03;6.15;;;5.55;;
46463;SDS011;32161;48.148;-1.554;2023-06-14T12:19:32;6.85;;;5.22;;
46463;SDS011;32161;48.148;-1.554;2023-06-14T12:22:03;9.40;;;5.38;;
46463;SDS011;32161;48.148;-1.554;2023-06-14T12:24:31;7.57;;;5.40;;
46463;SDS011;32161;48.148;-1.554;2023-06-14T12:26:59;5.80;;;5.30;;
46463;SDS011;32161;48.148;-1.554;2023-06-14T12:29:28;8.85;;;5.20;;
46463;SDS011;32161;48.148;-1.554;2023-06-14T12:31:56;9.77;;;5.20;;
46463;SDS011;32161;48.148;-1.554;2023-06-14T12:34:24;6.25;;;5.57;;
46463;SDS011;32161;48.148;-1.554;2023-06-14T12:36:52;6.22;;;4.97;;
46463;SDS011;32161;48.148;-1.554;2023-06-14T12:39:22;8.45;;;5.55;;
46463;SDS011;32161;48.148;-1.554;2023-06-14T12:41:51;6.40;;;4.80;;
46463;SDS011;32161;48.148;-1.554;2023-06-14T12:44:19;8.77;;;5.20;;
46463;SDS011;32161;48.148;-1.554;2023-06-14T12:46:46;9.27;;;5.55;;
46463;SDS011;32161;48.148;-1.554;2023-06-14T12:49:16;5.32;;;4.82;;
46463;SDS011;32161;48.148;-1.554;2023-06-14T12:51:45;5.45;;;5.05;;
46463;SDS011;32161;48.148;-1.554;2023-06-14T12:54:12;7.55;;;5.50;;
46463;SDS011;32161;48.148;-1.554;2023-06-14T12:56:42;8.00;;;5.38;;
46463;SDS011;32161;48.148;-1.554;2023-06-14T12:59:10;5.70;;;5.22;;
46463;SDS011;32161;48.148;-1.554;2023-06-14T13:01:37;8.73;;;5.03;;
46463;SDS011;32161;48.148;-1.554;2023-06-14T13:04:05;5.40;;;4.55;;
46463;SDS011;32161;48.148;-1.554;2023-06-14T13:06:33;8.88;;;5.35;;
46463;SDS011;32161;48.148;-1.554;2023-06-14T13:09:00;5.45;;;5.05;;
46463;SDS011;32161;48.148;-1.554;2023-06-14T13:11:29;7.88;;;5.20;;
46463;SDS011;32161;48.148;-1.554;2023-06-14T13:13:58;5.57;;;4.60;;
46463;SDS011;32161;48.148;-1.554;2023-06-14T13:16:25;5.88;;;5.38;;
46463;SDS011;32161;48.148;-1.554;2023-06-14T13:18:53;8.88;;;5.13;;
46463;SDS011;32161;48.148;-1.554;2023-06-14T13:21:20;6.28;;;4.90;;
46463;SDS011;32161;48.148;-1.554;2023-06-14T13:23:48;7.28;;;5.40;;
46463;SDS011;32161;48.148;-1.554;2023-06-14T13:26:16;6.00;;;5.40;;
46463;SDS011;32161;48.148;-1.554;2023-06-14T13:28:44;8.60;;;5.18;;
46463;SDS011;32161;48.148;-1.554;2023-06-14T13:31:13;6.95;;;5.07;;
46463;SDS011;32161;48.148;-1.554;2023-06-14T13:33:41;10.68;;;4.90;;
46463;SDS011;32161;48.148;-1.554;2023-06-14T13:36:09;9.65;;;5.13;;
46463;SDS011;32161;48.148;-1.554;2023-06-14T13:38:36;6.88;;;5.05;;
46463;SDS011;32161;48.148;-1.554;2023-06-14T13:41:04;6.53;;;5.13;;
46463;SDS011;32161;48.148;-1.554;2023-06-14T13:43:31;4.97;;;4.57;;
46463;SDS011;32161;48.148;-1.554;2023-06-14T13:45:59;5.40;;;4.90;;
46463;SDS011;32161;48.148;-1.554;2023-06-14T13:48:28;5.32;;;4.90;;
46463;SDS011;32161;48.148;-1.554;2023-06-14T13:50:56;7.38;;;5.65;;
46463;SDS011;32161;48.148;-1.554;2023-06-14T13:53:24;11.00;;;5.15;;
46463;SDS011;32161;48.148;-1.554;2023-06-14T13:55:51;5.22;;;4.57;;
46463;SDS011;32161;48.148;-1.554;2023-06-14T13:58:19;6.03;;;4.43;;
46463;SDS011;32161;48.148;-1.554;2023-06-14T14:00:47;5.00;;;4.57;;
46463;SDS011;32161;48.148;-1.554;2023-06-14T14:03:14;11.23;;;4.75;;
46463;SDS011;32161;48.148;-1.554;2023-06-14T14:08:13;8.77;;;5.30;;
46463;SDS011;32161;48.148;-1.554;2023-06-14T14:10:41;4.90;;;4.50;;
46463;SDS011;32161;48.148;-1.554;2023-06-14T14:13:09;5.18;;;4.68;;
46463;SDS011;32161;48.148;-1.554;2023-06-14T14:15:37;8.57;;;4.75;;
46463;SDS011;32161;48.148;-1.554;2023-06-14T14:18:05;5.85;;;5.35;;
46463;SDS011;32161;48.148;-1.554;2023-06-14T14:20:32;6.40;;;4.85;;
46463;SDS011;32161;48.148;-1.554;2023-06-14T14:23:01;5.72;;;4.95;;
46463;SDS011;32161;48.148;-1.554;2023-06-14T14:25:29;9.27;;;4.85;;
46463;SDS011;32161;48.148;-1.554;2023-06-14T14:27:57;6.40;;;4.32;;
46463;SDS011;32161;48.148;-1.554;2023-06-14T14:30:25;4.70;;;4.40;;
46463;SDS011;32161;48.148;-1.554;2023-06-14T14:32:53;5.55;;;5.05;;
46463;SDS011;32161;48.148;-1.554;2023-06-14T14:35:20;5.22;;;4.75;;
46463;SDS011;32161;48.148;-1.554;2023-06-14T14:37:49;7.20;;;4.90;;